First View, Colorado
Current Conditions -  °F | °C
As of 8:53 AM on Thursday 27 Nov 2014 (Local Time) from KITR Reporting Station
Clear Clear  
Wind Chill: 36°   Ceiling: Unl
Heat Index: 43°   Visibility: 10mi
Dew Point: 27°   Wind: 13mph
Humidity: 53%   Direction: 210°SSW
Pressure: 30.23"   Gusts: NA
Location:  38.8478°N, 102.453°W
Report Text: KITR 271553Z AUTO 21011KT 10SM CLR 06/M03 A3023 RMK AO2 SLP255 T00611028
Loading
Personal Weather Stations






























Interactive Weather Map New forecast layout! Learn more

10-Day Weather Forecast

Advertisements
Track Severe Weather on mobile